• Join FlightAware (Why Join?)
  • Login
  • US Flag 
08:05AM EDT


 

Airport Tracker/Info


-or-


 

Live Flight TrackerFlight Track Log ✈ N960DL ✈ 25-Apr-2013 ✈ KPWM - KATL

Flight Track Log - Related Links

Times and Time Zones

All times are in EDT time to prevent confusion due to time zone crossing. See the N960DL flight status page for this flight to view local times or setup timezone preferences in your user account.

Time Position Orientation Groundspeed Altitude Reporting Facility
EDT Latitude Longitude Course Direction KTS MPH feet Rate Location/Type
03:56PM 43.5489 -70.4950 216° Southwest 279 321 5,100  Level Boston Center
03:57PM 43.4489 -70.2855 235° Southwest  Level FlightAware Approximate
03:57PM 43.4767 -70.5403 204° Southwest 279 321 7,700  Level Boston Center
03:58PM 43.3829 -70.3974 226° Southwest  Level FlightAware Approximate
03:58PM 43.4086 -70.5794 203° Southwest 279 321 11,300  Level Boston Center
03:59PM 43.3121 -70.5039 232° Southwest  Level FlightAware Approximate
03:59PM 43.3322 -70.6275 205° Southwest 286 329 12,500  Level Boston Center
04:00PM 43.2412 -70.6088 216° Southwest  Level FlightAware Approximate
04:00PM 43.2475 -70.6728 201° Southwest 333 383 14,100  Level Boston Center
04:01PM 43.1563 -70.6938 216° Southwest  Level FlightAware Approximate
04:01PM 43.1461 -70.7328 203° Southwest 365 420 17,700  Level Boston Center
04:02PM 43.0714 -70.7786 216° Southwest  Level FlightAware Approximate
04:02PM 43.0617 -70.7919 207° Southwest 358 412 19,400  Level Boston Center
04:03PM 42.9708 -70.8567 208° Southwest 363 418 21,400 1,800 Climbing Boston Center
04:04PM 42.8822 -70.9214 208° Southwest 363 418 23,000 1,680 Climbing Boston Center
04:05PM 42.7869 -70.9831 205° Southwest 368 423 24,800 1,560 Climbing Boston Center
04:06PM 42.6897 -71.0306 200° South 368 423 26,200 1,680 Climbing Boston Center
04:07PM 42.6047 -71.0719 200° South 373 429 28,200 1,500 Climbing Boston Center
04:08PM 42.5075 -71.1247 202° Southwest 373 429 29,300 1,080 Climbing Boston Center
04:09PM 42.4439 -71.2247 229° Southwest 356 410 30,400 1,140 Climbing Boston Center
04:10PM 42.4097 -71.3519 250° West 347 399 31,600 780 Climbing Boston Center
04:11PM 42.3797 -71.4817 253° West 347 399 32,000 180 Climbing Boston Center
04:12PM 42.3431 -71.6058 248° West 355 409 32,000  Level Boston Center
04:13PM 42.3086 -71.7356 250° West 355 409 32,000  Level Boston Center
04:14PM 42.2739 -71.8592 249° West 355 409 32,000  Level Boston Center
04:15PM 42.2411 -71.9858 251° West 355 409 32,000  Level Boston Center
04:16PM 42.2103 -72.1094 251° West 355 409 32,000  Level Boston Center
04:17PM 42.1772 -72.2383 251° West 355 409 32,000  Level Boston Center
04:18PM 42.1439 -72.3617 250° West 355 409 32,000  Level Boston Center
04:19PM 42.1108 -72.4906 251° West 355 409 32,000  Level Boston Center
04:20PM 42.0772 -72.6164 250° West 360 414 32,000  Level Boston Center
04:21PM 42.0414 -72.7503 250° West 354 407 32,000  Level Boston Center
04:22PM 42.0097 -72.8731 251° West 354 407 32,000  Level Boston Center
04:23PM 41.9761 -72.9903 249° West 364 419 32,000  Level Boston Center
04:24PM 41.9233 -73.0986 237° Southwest 356 410 32,000  Level Boston Center
04:25PM 41.8458 -73.1731 216° Southwest 351 404 32,000  Level Boston Center
04:27PM 41.7269 -73.3506 228° Southwest 343 395 32,000  Level New York Center
04:28PM 41.6644 -73.4453 229° Southwest 343 395 32,000  Level New York Center
04:29PM 41.6039 -73.5400 229° Southwest 343 395 32,000  Level New York Center
04:30PM 41.5433 -73.6344 229° Southwest 343 395 32,000  Level New York Center
04:31PM 41.4786 -73.7311 228° Southwest 343 395 32,000  Level New York Center
04:32PM 41.4156 -73.8281 229° Southwest 350 403 32,000  Level New York Center
04:33PM 41.3486 -73.9244 227° Southwest 355 409 32,000 -60 Level New York Center
04:34PM 41.2814 -74.0261 229° Southwest 360 414 31,900  Descending New York Center
04:35PM 41.2139 -74.1222 227° Southwest 360 414 32,000  Climbing New York Center
04:36PM 41.1553 -74.2075 228° Southwest 360 414 32,000  Level New York Center
04:37PM 41.0900 -74.3031 228° Southwest 360 414 32,000  Level New York Center
04:38PM 41.0225 -74.3986 227° Southwest 360 414 32,000  Level New York Center
04:39PM 40.9592 -74.4969 230° Southwest 360 414 32,000  Level New York Center
04:40PM 40.8914 -74.5947 227° Southwest 360 414 32,000  Level New York Center
04:41PM 40.8278 -74.6928 229° Southwest 360 414 32,000  Level New York Center
04:42PM 40.7619 -74.7875 227° Southwest 360 414 32,000  Level New York Center
04:43PM 40.6961 -74.8850 228° Southwest 360 414 32,000  Level New York Center
04:44PM 40.6281 -74.9819 227° Southwest 360 414 32,000  Level New York Center
04:45PM 40.5622 -75.0764 227° Southwest 360 414 32,000  Level New York Center
04:46PM 40.4917 -75.1783 228° Southwest 366 421 32,000 -60 Level New York Center
04:47PM 40.4236 -75.2722 226° Southwest 366 421 31,900  Descending New York Center
04:48PM 40.3436 -75.3514 217° Southwest 366 421 32,000  Climbing New York Center
04:49PM 40.2478 -75.3994 201° Southwest 358 412 31,900  Descending New York Center
04:50PM 40.1617 -75.4725 213° Southwest 368 423 32,000  Climbing New York Center
04:51PM 40.0972 -75.5711 230° Southwest 359 413 31,900  Descending New York Center
04:52PM 40.0344 -75.6753 232° Southwest 365 420 32,000  Climbing New York Center
04:53PM 39.9694 -75.7819 232° Southwest 376 433 32,000  Level New York Center
04:54PM 39.9067 -75.8883 232° Southwest 376 433 32,000  Level New York Center
04:55PM 39.8417 -75.9917 231° Southwest 376 433 32,000  Level New York Center
04:57PM 39.7394 -76.1556 231° Southwest 372 428 32,000  Level Washington Center
04:58PM 39.6700 -76.2575 229° Southwest 377 434 32,000  Level Washington Center
04:59PM 39.6069 -76.3619 232° Southwest 377 434 32,000  Level Washington Center
05:01PM 39.5039 -76.5414 233° Southwest  Level FlightAware Approximate
05:01PM 39.4700 -76.5756 233° Southwest 377 434 32,000  Level Washington Center
05:03PM 39.3369 -76.7856 231° Southwest 382 440 32,000  Level Washington Center
05:04PM 39.2692 -76.8919 231° Southwest 382 440 32,000  Level Washington Center
05:05PM 39.2033 -76.9950 231° Southwest 377 434 32,000 180 Level Washington Center
05:06PM 39.1375 -77.0981 231° Southwest 377 434 32,400 480 Climbing Washington Center
05:07PM 39.0714 -77.2011 230° Southwest 377 434 33,000 600 Climbing Washington Center
05:08PM 38.9947 -77.3169 230° Southwest 377 434 33,700 480 Climbing Washington Center
05:09PM 38.9394 -77.4036 231° Southwest 371 427 34,000 120 Climbing Washington Center
05:10PM 38.8753 -77.5033 230° Southwest 371 427 34,000  Level Washington Center
05:11PM 38.8069 -77.6083 230° Southwest 381 438 34,000  Level Washington Center
05:12PM 38.7342 -77.7181 230° Southwest 381 438 34,000  Level Washington Center
05:13PM 38.6697 -77.8200 231° Southwest 376 433 34,000  Level Washington Center
05:14PM 38.6053 -77.9242 232° Southwest 371 427 34,000  Level Washington Center
05:15PM 38.5425 -78.0283 232° Southwest 377 434 34,000  Level Washington Center
05:16PM 38.4822 -78.1325 234° Southwest 377 434 34,000  Level Washington Center
05:17PM 38.4236 -78.2367 234° Southwest 377 434 34,000  Level Washington Center
05:18PM 38.3586 -78.3403 231° Southwest 377 434 34,000  Level Washington Center
05:19PM 38.2978 -78.4464 234° Southwest 377 434 34,000  Level Washington Center
05:20PM 38.2478 -78.5369 235° Southwest 372 428 34,000  Level Washington Center
05:21PM 38.1844 -78.6428 233° Southwest 372 428 34,000  Level Washington Center
05:22PM 38.1150 -78.7561 232° Southwest 377 434 34,000  Level Washington Center
05:23PM 38.0536 -78.8592 233° Southwest 377 434 34,000  Level Washington Center
05:24PM 37.9903 -78.9644 233° Southwest 377 434 34,000  Level Washington Center
05:25PM 37.9269 -79.0642 231° Southwest 377 434 34,000  Level Washington Center
05:26PM 37.8681 -79.1536 230° Southwest 377 434 34,000  Level Washington Center
05:27PM 37.7983 -79.2528 228° Southwest 377 434 34,000  Level Washington Center
05:28PM 37.7264 -79.3492 227° Southwest 377 434 34,000  Level Washington Center
05:29PM 37.6481 -79.4528 226° Southwest 377 434 34,000  Level Washington Center
05:30PM 37.5847 -79.5411 228° Southwest 377 434 34,000  Level Washington Center
05:31PM 37.5081 -79.6472 228° Southwest 383 441 34,000  Level Washington Center
05:32PM 37.4469 -79.7278 226° Southwest 378 435 34,000  Level Washington Center
05:33PM 37.3744 -79.8308 229° Southwest 383 441 34,000  Level Washington Center
05:34PM 37.3000 -79.9311 227° Southwest 378 435 34,000  Level Washington Center
05:35PM 37.2297 -80.0264 227° Southwest 378 435 34,000  Level Washington Center
05:36PM 37.1617 -80.1189 227° Southwest 378 435 34,000  Level Washington Center
05:37PM 37.0833 -80.2247 227° Southwest 356 410 34,000  Level Atlanta Center
05:38PM 37.0153 -80.3189 228° Southwest 356 410 34,000  Level Atlanta Center
05:39PM 36.9453 -80.4106 226° Southwest 356 410 34,000  Level Atlanta Center
05:40PM 36.8689 -80.5128 227° Southwest 356 410 34,000  Level Atlanta Center
05:41PM 36.7986 -80.6092 228° Southwest 356 410 34,000  Level Atlanta Center
05:42PM 36.7403 -80.6867 227° Southwest 356 410 34,000  Level Atlanta Center
05:43PM 36.6697 -80.7750 225° Southwest 351 404 34,000  Level Atlanta Center
05:44PM 36.6033 -80.8708 229° Southwest 357 411 34,000  Level Atlanta Center
05:45PM 36.5306 -80.9617 225° Southwest 363 418 34,000  Level Atlanta Center
05:46PM 36.4619 -81.0547 228° Southwest 363 418 34,000  Level Atlanta Center
05:47PM 36.3914 -81.1475 227° Southwest 363 418 34,000  Level Atlanta Center
05:48PM 36.3206 -81.2403 227° Southwest 369 425 34,000  Level Atlanta Center
05:49PM 36.2497 -81.3356 227° Southwest 376 433 34,000  Level Atlanta Center
05:50PM 36.1703 -81.4358 226° Southwest 376 433 34,000  Level Atlanta Center
05:51PM 36.0994 -81.5306 227° Southwest 382 440 34,000  Level Atlanta Center
05:52PM 36.0264 -81.6306 228° Southwest 389 448 34,000  Level Atlanta Center
05:53PM 35.9550 -81.7250 227° Southwest 381 438 34,000  Level Atlanta Center
05:54PM 35.8797 -81.8194 225° Southwest 387 445 34,000  Level Atlanta Center
05:55PM 35.8042 -81.9161 226° Southwest 387 445 34,000  Level Atlanta Center
05:56PM 35.7306 -82.0075 225° Southwest 378 435 34,000  Level Atlanta Center
05:57PM 35.6572 -82.1039 227° Southwest 383 441 34,000  Level Atlanta Center
05:58PM 35.5792 -82.1978 224° Southwest 383 441 34,000  Level Atlanta Center
05:59PM 35.5036 -82.2939 226° Southwest 383 441 34,000  Level Atlanta Center
06:00PM 35.4211 -82.3797 220° Southwest 388 447 34,000 -540 Level Atlanta Center
06:01PM 35.3411 -82.4703 223° Southwest 394 453 33,000  Descending Atlanta Center
06:02PM 35.2608 -82.5608 223° Southwest 394 453 34,000 -1,680 Climbing Atlanta Center
06:03PM 35.1783 -82.6489 221° Southwest 394 453 29,700 -3,000 Descending Atlanta Center
06:04PM 35.0917 -82.7417 221° Southwest 404 465 28,000 -1,680 Descending Atlanta Center
06:05PM 35.0050 -82.8394 223° Southwest 417 480 26,400 -1,260 Descending Atlanta Center
06:06PM 34.9225 -82.9317 223° Southwest 417 480 25,500 -960 Descending Atlanta Center
06:07PM 34.8397 -83.0239 222° Southwest 406 467 24,500 -780 Descending Atlanta Center
06:08PM 34.7550 -83.1108 220° Southwest 412 474 24,000 -300 Descending Atlanta Center
06:09PM 34.6700 -83.2053 222° Southwest 407 468 24,000  Level Atlanta Center
06:10PM 34.5872 -83.2994 223° Southwest 412 474 24,000 -480 Level Atlanta Center
06:11PM 34.5022 -83.3911 222° Southwest 412 474 23,100 -1,980 Descending Atlanta Center
06:12PM 34.4169 -83.4822 221° Southwest 412 474 20,100 -2,700 Descending Atlanta Center
06:13PM 34.3444 -83.5608 222° Southwest 401 461 17,700 -2,580 Descending Atlanta Center
06:14PM 34.2675 -83.6467 223° Southwest 391 450 15,000 -2,700 Descending Atlanta Center
06:15PM 34.1883 -83.7300 221° Southwest 386 444 12,300 -1,500 Descending Atlanta Center
06:16PM 34.1133 -83.8131 223° Southwest 378 435 12,000 -180 Descending Atlanta Center
06:17PM 34.0489 -83.8858 223° Southwest 345 397 12,000 -840 Level Atlanta Center
06:18PM 34.0000 -83.9333 219° Southwest 281 323 10,700 -1,260 Descending Atlanta TRACON
06:19PM 33.9500 -84.0000 228° Southwest 284 327 10,000 -600 Descending Atlanta TRACON
06:20PM 33.8833 -84.0500 212° Southwest 280 322 9,600 -600 Descending Atlanta TRACON
06:20PM 33.8653 -84.0789 233° Southwest 287 330 9,200 -1,680 Descending Atlanta Center
06:21PM 33.7942 -84.1189 205° Southwest 281 323 7,400 -1,920 Descending Atlanta Center
06:21PM 33.7667 -84.1333 204° Southwest 281 323 6,500 -1,620 Descending Atlanta TRACON
06:23PM 33.6833 -84.1833 207° Southwest 250 288 4,900 -1,500 Descending Atlanta TRACON